Latest Weather Observations for Laverton

IDV60901

Issued at 6:15 am EST Thursday 24 April 2014 (issued every 10 minutes, with the page automatically refreshed every 10 minutes)

About weather observations | Map of Melbourne area stations | Latest observations for Melbourne area | Other Formats
Station Details ID: 087031 Name: LAVERTON RAAF Lat: -37.86 Lon: 144.76 Height: 20.1 m
Data from the previous 72 hours. | See also: Recent months at Laverton
Date/Time
EST
Tmp

°C
App
Tmp
°C
Dew
Point
°C
Rel
Hum
%
Delta-T

°C
Wind Press
QNH
hPa
Press
MSL
hPa
Rain
since
9 am
mm
Dir
 
Spd
km/h
Gust
km/h
Spd
kts
Gust
kts
24/06:00am 13.1 9.4 6.2 63 3.3 NNW 15 20 8 11 1011.4 1011.4 0.0
24/05:30am 12.7 9.1 5.1 60 3.5 NW 13 17 7 9 1011.0 - 0.0
24/05:00am 13.9 9.1 4.8 54 4.2 NNW 19 24 10 13 1010.4 - 0.0
24/04:30am 13.9 9.9 4.8 54 4.2 N 15 22 8 12 1010.0 - 0.0
24/04:00am 13.1 9.1 4.8 57 3.8 N 15 20 8 11 1009.9 - 0.0
24/03:30am 13.6 10.0 5.0 56 4.0 N 13 19 7 10 1010.4 - 0.0
24/03:00am 14.1 9.7 4.9 54 4.3 N 17 24 9 13 1010.4 1010.4 0.0
24/02:30am 14.2 9.8 5.0 54 4.3 N 17 24 9 13 1010.7 - 0.0
24/02:00am 14.5 10.1 5.0 53 4.4 N 17 26 9 14 1010.9 - 0.0
24/01:30am 14.5 10.3 5.6 55 4.2 N 17 26 9 14 1011.2 - 0.0
24/01:00am 13.7 10.0 6.3 61 3.5 N 15 19 8 10 1011.5 - 0.0
24/12:30am 13.2 9.9 6.3 63 3.3 N 13 19 7 10 1011.7 - 0.0
24/12:00am 12.5 9.6 6.3 66 2.9 N 11 15 6 8 1012.0 1012.0 0.0
 
Date/Time
EST
Tmp

°C
App
Tmp
°C
Dew
Point
°C
Rel
Hum
%
Delta-T

°C
Wind Press
QNH
hPa
Press
MSL
hPa
Rain
since
9 am
mm
Dir
 
Spd
km/h
Gust
km/h
Spd
kts
Gust
kts
23/11:30pm 13.2 10.3 6.5 64 3.2 N 11 17 6 9 1012.3 - 0.0
23/11:00pm 12.9 10.0 6.7 66 3.0 N 11 15 6 8 1012.5 - 0.0
23/10:30pm 13.0 10.2 6.8 66 3.0 NNE 11 15 6 8 1012.9 - 0.0
23/10:00pm 13.6 10.9 7.2 65 3.1 N 11 13 6 7 1013.1 - 0.0
23/09:30pm 13.6 11.0 7.6 67 2.9 N 11 15 6 8 1013.2 - 0.0
23/09:00pm 13.7 11.8 7.7 67 3.0 N 7 11 4 6 1013.3 1013.3 0.0
23/08:30pm 13.3 12.2 10.7 84 1.4 E 7 11 4 6 1013.2 - 0.0
23/08:00pm 12.6 11.7 10.5 87 1.1 E 6 7 3 4 1013.4 - 0.0
23/07:30pm 13.2 13.5 10.9 86 1.2 CALM 0 0 0 0 1013.5 - 0.0
23/07:00pm 13.7 14.0 10.9 83 1.5 CALM 0 0 0 0 1013.2 - 0.0
23/06:30pm 14.1 13.2 10.7 80 1.8 E 6 7 3 4 1013.1 - 0.0
23/06:00pm 14.2 13.0 10.4 78 2.0 E 7 9 4 5 1013.0 1013.0 0.0
23/05:30pm 15.3 14.0 9.9 70 2.8 SE 7 9 4 5 1013.2 - 0.0
23/05:00pm 16.3 15.1 10.4 68 3.1 ESE 7 11 4 6 1013.3 - 0.0
23/04:30pm 16.8 15.5 11.1 69 3.1 SSE 9 13 5 7 1013.4 - 0.0
23/04:00pm 16.8 15.3 10.6 67 3.3 ESE 9 13 5 7 1013.5 - 0.0
23/03:30pm 16.8 15.4 10.9 68 3.2 ESE 9 13 5 7 1013.4 - 0.0
23/03:00pm 16.8 14.9 10.6 67 3.3 ESE 11 13 6 7 1013.5 1013.5 0.0
23/02:30pm 16.8 15.4 10.9 68 3.2 E 9 13 5 7 1013.7 - 0.0
23/02:00pm 17.5 15.1 8.6 56 4.6 N 11 15 6 8 1013.8 - 0.0
23/01:30pm 17.9 15.6 9.0 56 4.6 WSW 11 15 6 8 1014.6 - 0.0
23/01:00pm 17.2 15.0 9.4 60 4.1 NW 11 15 6 8 1014.9 - 0.0
23/12:30pm 17.4 15.3 9.6 60 4.1 W 11 17 6 9 1015.6 - 0.0
23/12:00pm 17.2 15.5 9.9 62 3.8 NNE 9 15 5 8 1015.9 1015.9 0.0
23/11:30am 17.2 16.2 10.3 64 3.7 NW 6 13 3 7 1016.3 - 0.0
23/11:00am 16.2 15.1 9.8 66 3.3 WSW 6 9 3 5 1016.5 - 0.0
23/10:30am 15.8 14.1 9.7 67 3.2 WSW 9 15 5 8 1016.8 - 0.0
23/10:00am 14.9 12.4 9.7 71 2.7 SW 13 17 7 9 1017.1 - 0.0
23/09:30am 14.0 11.6 10.0 77 2.1 W 13 17 7 9 1017.3 - 0.0
23/09:00am 12.8 10.8 10.2 84 1.3 WSW 11 17 6 9 1017.4 1017.4 3.4
23/08:30am 11.6 10.0 10.2 91 0.7 SSW 9 13 5 7 1017.0 - 3.4
23/08:00am 10.3 8.9 9.5 95 0.4 SSW 7 9 4 5 1016.8 - 3.4
23/07:30am 8.9 7.1 8.1 95 0.4 SSW 7 9 4 5 1016.7 - 3.4
23/07:00am 8.4 6.1 7.3 93 0.5 SSW 9 11 5 6 1016.5 - 3.4
23/06:30am 9.7 8.0 8.5 92 0.6 SSW 7 7 4 4 1016.4 - 3.4
23/06:00am 10.0 8.0 8.6 91 0.7 SSW 9 11 5 6 1016.6 1016.6 3.4
23/05:30am 10.6 8.4 9.2 91 0.7 SSW 11 13 6 7 1016.4 - 3.4
23/05:00am 11.6 9.9 10.0 90 0.8 SSW 9 11 5 6 1016.5 - 3.4
23/04:30am 11.7 10.4 9.8 88 1.0 SSW 7 9 4 5 1016.3 - 3.4
23/04:00am 12.2 11.1 9.9 86 1.2 SSW 6 7 3 4 1016.1 - 3.4
23/03:30am 12.3 11.1 10.4 88 1.0 SSW 7 11 4 6 1016.3 - 3.4
23/03:00am 12.8 11.7 10.7 87 1.1 SSW 7 9 4 5 1016.5 1016.5 3.4
23/02:30am 13.0 12.0 10.9 87 1.1 SSW 7 9 4 5 1016.6 - 3.4
23/02:00am 13.2 12.7 10.9 86 1.2 SSW 4 6 2 3 1016.7 - 3.4
23/01:30am 13.4 12.4 11.1 86 1.2 SSW 7 9 4 5 1017.1 - 3.4
23/01:00am 13.5 11.7 11.0 85 1.3 SSW 11 13 6 7 1017.2 - 3.4
23/12:30am 13.5 12.1 11.0 85 1.3 SSW 9 13 5 7 1017.3 - 3.4
23/12:00am 13.6 12.3 11.3 86 1.2 SSW 9 11 5 6 1017.5 1017.5 3.4
 
Date/Time
EST
Tmp

°C
App
Tmp
°C
Dew
Point
°C
Rel
Hum
%
Delta-T

°C
Wind Press
QNH
hPa
Press
MSL
hPa
Rain
since
9 am
mm
Dir
 
Spd
km/h
Gust
km/h
Spd
kts
Gust
kts
22/11:30pm 13.5 13.9 11.2 86 1.2 CALM 0 0 0 0 1017.6 - 3.4
22/11:00pm 13.9 14.3 11.2 84 1.4 CALM 0 0 0 0 1017.8 - 3.4
22/10:30pm 13.9 13.1 11.2 84 1.4 SSW 6 7 3 4 1018.1 - 3.4
22/10:00pm 14.0 13.1 11.3 84 1.4 SSW 7 9 4 5 1018.1 - 3.4
22/09:30pm 14.3 13.4 11.5 83 1.5 S 7 9 4 5 1017.9 - 3.4
22/09:00pm 14.5 13.5 11.1 80 1.8 S 7 9 4 5 1017.6 1017.6 3.4
22/08:30pm 14.7 14.0 11.3 80 1.8 SSE 6 9 3 5 1017.5 - 3.4
22/08:00pm 14.5 12.9 11.5 82 1.6 S 11 15 6 8 1017.4 - 3.4
22/07:30pm 14.5 13.4 11.8 84 1.5 S 9 11 5 6 1017.3 - 3.4
22/07:00pm 14.6 13.6 12.3 86 1.3 SSE 9 13 5 7 1016.9 - 3.4
22/06:30pm 14.8 13.6 12.7 87 1.2 S 11 17 6 9 1016.5 - 3.2
22/06:00pm 15.0 14.8 13.5 91 0.8 S 7 11 4 6 1016.2 1016.2 3.2
22/05:30pm 15.1 15.2 14.0 93 0.6 ESE 6 9 3 5 1015.8 - 3.2
22/05:27pm 15.1 15.2 14.0 93 0.6 ESE 6 9 3 5 1015.7 - 3.2
22/05:05pm 15.0 14.8 13.7 92 0.7 ESE 7 9 4 5 1015.5 - 3.2
22/05:00pm 15.1 15.0 13.8 92 0.7 ESE 7 9 4 5 1015.5 - 3.2
22/04:30pm 15.3 15.2 13.8 91 0.8 ESE 7 11 4 6 1015.2 - 2.8
22/04:25pm 15.4 14.9 13.8 90 0.9 SE 9 13 5 7 1015.2 - 2.8
22/04:13pm 15.5 15.0 13.7 89 1.0 S 9 15 5 8 1015.2 - 2.8
22/04:00pm 15.9 16.0 13.9 88 1.1 SW 6 7 3 4 1015.0 - 2.8
22/03:47pm 15.9 15.9 13.7 87 1.2 SW 6 6 3 3 1015.0 - 2.8
22/03:30pm 15.9 16.3 13.6 86 1.3 SW 4 6 2 3 1015.0 - 2.8
22/03:26pm 16.0 16.0 13.7 86 1.3 SW 6 6 3 3 1014.9 - 2.8
22/03:00pm 16.0 15.7 13.3 84 1.5 SW 7 9 4 5 1014.7 1014.7 2.8
22/02:30pm 16.6 16.2 12.9 79 2.1 WSW 7 11 4 6 1014.4 - 2.8
22/02:00pm 16.6 16.3 12.8 78 2.1 NNE 6 6 3 3 1014.3 - 2.8
22/01:30pm 16.4 17.4 13.1 81 1.8 CALM 0 0 0 0 1014.3 - 2.8
22/01:00pm 15.8 15.6 12.9 83 1.6 NNE 6 7 3 4 1014.4 - 2.6
22/12:30pm 15.5 14.4 12.1 80 1.9 N 9 13 5 7 1014.6 - 2.6
22/12:00pm 15.5 13.5 11.5 77 2.2 N 13 19 7 10 1015.0 1015.0 2.4
22/11:30am 14.7 12.3 11.5 81 1.7 N 15 20 8 11 1015.2 - 2.4
22/11:00am 13.5 10.3 11.2 86 1.2 N 19 30 10 16 1015.2 - 2.4
22/10:51am 13.4 10.0 11.1 86 1.2 N 20 37 11 20 1015.1 - 2.4
22/10:40am 13.2 9.3 10.7 85 1.3 N 22 32 12 17 1014.9 - 2.4
22/10:30am 13.8 10.3 10.8 82 1.6 N 20 28 11 15 1014.9 - 1.2
22/10:00am 13.3 9.4 10.8 85 1.3 N 22 32 12 17 1014.9 - 1.2
22/09:30am 12.9 7.8 10.6 86 1.2 N 28 41 15 22 1014.9 - 1.2
22/09:00am 12.8 7.8 10.9 88 1.0 N 28 39 15 21 1014.3 1014.3 4.8
22/08:55am 12.7 8.0 10.8 88 1.0 N 26 39 14 21 1014.4 - 4.8
22/08:37am 12.5 8.5 10.6 88 1.0 N 22 32 12 17 1014.6 - 4.4
22/08:30am 12.5 9.5 10.7 89 0.9 N 17 24 9 13 1015.3 - 3.8
22/08:01am 12.4 10.5 10.5 88 1.0 NE 11 17 6 9 1015.2 - 3.0
22/08:00am 12.3 10.4 10.4 88 1.0 NE 11 17 6 9 1015.2 - 2.8
22/07:35am 12.8 10.8 10.2 84 1.3 S 11 17 6 9 1016.1 - 1.6
22/07:30am 12.8 10.8 10.2 84 1.3 SSW 11 17 6 9 1016.2 - 1.4
22/07:03am 13.6 12.2 8.9 73 2.4 NW 6 9 3 5 1015.8 - 0.6
22/07:00am 13.8 12.4 8.8 72 2.5 WNW 6 9 3 5 1015.5 - 0.6
22/06:41am 14.5 12.4 8.2 66 3.2 N 9 17 5 9 1014.8 - 0.0
22/06:30am 15.1 11.0 7.9 62 3.6 N 19 28 10 15 1014.4 - 0.0
22/06:00am 15.9 10.6 6.6 54 4.5 N 24 32 13 17 1014.3 1014.3 0.0
22/05:30am 15.8 9.7 6.5 54 4.5 N 28 39 15 21 1014.4 - 0.0
22/05:00am 15.7 9.6 6.4 54 4.5 N 28 43 15 23 1013.9 - 0.0
22/04:36am 16.6 9.6 6.1 50 5.1 N 32 50 17 27 1013.6 - 0.0
22/04:30am 16.7 9.2 6.2 50 5.1 N 35 50 19 27 1013.3 - 0.0
22/04:04am 16.7 9.5 5.9 49 5.2 N 33 52 18 28 1012.4 - 0.0
22/04:00am 16.7 9.5 5.9 49 5.2 N 33 48 18 26 1012.4 - 0.0
22/03:30am 17.0 7.8 5.6 47 5.5 N 43 67 23 36 1011.4 - 0.0
22/03:00am 17.0 8.6 5.6 47 5.5 N 39 69 21 37 1011.5 1011.5 0.0
22/02:30am 17.2 7.9 5.8 47 5.5 N 44 65 24 35 1011.7 - 0.0
22/02:00am 17.2 8.4 5.5 46 5.7 N 41 63 22 34 1011.8 - 0.0
22/01:30am 17.3 8.5 5.6 46 5.7 N 41 59 22 32 1011.7 - 0.0
22/01:00am 17.2 8.0 5.5 46 5.7 N 43 67 23 36 1011.9 - 0.0
22/12:30am 17.1 8.3 5.7 47 5.5 N 41 70 22 38 1012.4 - 0.0
22/12:00am 17.1 9.1 5.7 47 5.5 N 37 59 20 32 1013.0 1013.0 0.0
 
Date/Time
EST
Tmp

°C
App
Tmp
°C
Dew
Point
°C
Rel
Hum
%
Delta-T

°C
Wind Press
QNH
hPa
Press
MSL
hPa
Rain
since
9 am
mm
Dir
 
Spd
km/h
Gust
km/h
Spd
kts
Gust
kts
21/11:30pm 17.2 8.8 5.8 47 5.5 N 39 59 21 32 1013.1 - 0.0
21/11:00pm 17.2 9.2 5.8 47 5.5 N 37 56 20 30 1013.5 - 0.0
21/10:30pm 17.3 10.1 5.9 47 5.6 N 33 54 18 29 1013.5 - 0.0
21/10:00pm 17.4 9.8 6.0 47 5.6 N 35 57 19 31 1013.7 - 0.0
21/09:30pm 17.3 9.8 6.2 48 5.4 N 35 54 19 29 1013.6 - 0.0
21/09:08pm 17.3 9.8 6.2 48 5.4 N 35 57 19 31 1013.8 - 0.0
21/09:00pm 17.4 10.5 6.3 48 5.5 N 32 48 17 26 1014.0 1014.0 0.0
21/08:45pm 17.5 10.4 6.4 48 5.5 N 33 56 18 30 1013.9 - 0.0
21/08:30pm 17.5 10.4 6.4 48 5.5 N 33 50 18 27 1013.9 - 0.0
21/08:01pm 17.5 10.6 6.4 48 5.5 N 32 52 17 28 1013.9 - 0.0
21/08:00pm 17.5 10.7 6.7 49 5.4 N 32 44 17 24 1013.9 - 0.0
21/07:30pm 17.5 10.1 6.7 49 5.4 N 35 54 19 29 1013.6 - 0.0
21/07:00pm 17.5 8.9 6.7 49 5.4 N 41 59 22 32 1013.3 - 0.0
21/06:30pm 17.8 10.0 6.7 48 5.5 N 37 57 20 31 1013.3 - 0.0
21/06:03pm 18.1 11.2 6.6 47 5.7 N 32 50 17 27 1013.2 - 0.0
21/06:00pm 18.1 11.2 6.6 47 5.7 N 32 44 17 24 1013.3 1013.3 0.0
21/05:30pm 18.6 11.6 6.8 46 5.9 N 33 48 18 26 1013.0 - 0.0
21/05:17pm 18.9 12.1 6.7 45 6.1 N 32 50 17 27 1012.8 - 0.0
21/05:00pm 19.0 13.0 7.1 46 6.0 N 28 41 15 22 1012.8 - 0.0
21/04:30pm 19.0 13.4 7.1 46 6.0 NNE 26 37 14 20 1013.4 - 0.0
21/04:00pm 19.1 13.1 6.9 45 6.1 NNE 28 41 15 22 1013.5 - 0.0
21/03:50pm 19.2 13.2 7.0 45 6.2 NNE 28 46 15 25 1013.7 - 0.0
21/03:30pm 19.9 14.6 7.0 43 6.5 N 24 37 13 20 1014.0 - 0.0
21/03:00pm 19.8 13.7 6.5 42 6.7 N 28 37 15 20 1014.6 1014.6 0.0
21/02:30pm 19.4 14.8 6.5 43 6.5 N 20 32 11 17 1015.2 - 0.0
21/02:00pm 18.7 12.5 6.2 44 6.2 N 28 39 15 21 1015.2 - 0.0
21/01:30pm 18.5 11.9 6.0 44 6.2 NNE 30 48 16 26 1015.2 - 0.0
21/01:28pm 18.5 12.0 6.4 45 6.0 NNE 30 48 16 26 1015.2 - 0.0
21/01:00pm 19.1 12.1 5.9 42 6.5 N 32 44 17 24 1015.5 - 0.0
21/12:30pm 19.4 13.4 7.2 45 6.2 NNE 28 39 15 21 1016.0 - 0.0
21/12:00pm 18.1 11.2 6.6 47 5.7 NNE 32 44 17 24 1016.6 1016.6 0.0
21/11:36am 17.6 11.0 6.2 47 5.6 NNE 30 48 16 26 1017.0 - 0.0
21/11:30am 18.3 12.2 6.8 47 5.7 NNE 28 41 15 22 1017.0 - 0.0
21/11:00am 17.2 11.1 6.4 49 5.3 NNE 28 37 15 20 1017.5 - 0.0
21/10:30am 17.2 12.2 6.4 49 5.3 N 22 33 12 18 1018.0 - 0.0
21/10:00am 15.9 10.0 5.8 51 4.9 N 26 35 14 19 1018.4 - 0.0
21/09:30am 15.3 10.2 5.8 53 4.6 N 22 33 12 18 1018.8 - 0.0
21/09:00am 14.0 8.4 5.6 57 4.0 N 24 35 13 19 1018.8 1018.8 0.0
21/08:30am 13.7 8.5 5.6 58 3.8 N 22 30 12 16 1018.9 - 0.0
21/08:00am 13.0 8.2 5.7 61 3.4 N 20 28 11 15 1018.6 - 0.0
21/07:30am 12.9 8.2 5.3 60 3.5 N 19 26 10 14 1018.6 - 0.0
21/07:00am 12.3 8.7 5.2 62 3.3 N 13 20 7 11 1018.4 - 0.0
21/06:30am 12.3 7.9 5.0 61 3.4 N 17 28 9 15 1018.3 - 0.0

Latest Capital City Observations: Canberra | Sydney | Melbourne | Brisbane | Adelaide | Perth | Hobart | Darwin

Other Formats:

Comma delimited format used in spreadsheet applications
http://www.bom.gov.au/fwo/IDV60901/IDV60901.94865.axf

JavaScript Object Notation format (JSON) in row-major order
http://www.bom.gov.au/fwo/IDV60901/IDV60901.94865.json